Terminal Aerodrome Forecast
Issued by NWS

Home | Current Version | Previous Version | Text Only | Print | Product List | Glossary On
Versions: 1 2 3 4 5 6 7 8 9 10 11 12 13 14 15 16 17
000
FTPQ31 PGUM 011100
TAFPQ
TAF

PKWA 011123Z 0112/0212 14010KT P6SM VCSH SCT012 SCT035 BKN080
      TEMPO 0112/0115 16010G18KT 5SM SHRA SCT011 BKN025=

USA.gov is the U.S. government's official web portal to all federal, state and local government web resources and services.